createdAt,value
2022-08-20T00:01:16.106Z,19.60
2022-08-20T00:05:21.862Z,19.50
2022-08-20T00:09:23.526Z,19.50
2022-08-20T00:13:29.034Z,19.50
2022-08-20T00:17:39.580Z,19.60
2022-08-20T00:21:41.554Z,19.70
2022-08-20T00:25:44.292Z,19.50
2022-08-20T00:29:45.933Z,19.60
2022-08-20T00:33:47.695Z,19.60
2022-08-20T00:37:49.765Z,19.40
2022-08-20T00:41:52.166Z,19.20
2022-08-20T00:45:57.232Z,19.40
2022-08-20T00:49:58.851Z,19.40
2022-08-20T00:54:06.871Z,19.40
2022-08-20T00:58:09.624Z,19.40
2022-08-20T01:02:12.416Z,19.20
2022-08-20T01:06:14.258Z,19.30
2022-08-20T01:10:19.504Z,19.50
2022-08-20T01:14:24.113Z,19.60
2022-08-20T01:18:27.008Z,19.60
2022-08-20T01:22:52.621Z,19.70
2022-08-20T01:26:55.005Z,19.60
2022-08-20T01:30:56.774Z,19.50
2022-08-20T01:34:58.412Z,19.40
2022-08-20T01:39:00.799Z,19.40
2022-08-20T01:43:06.132Z,19.30
2022-08-20T01:47:14.423Z,19.20
2022-08-20T01:51:20.891Z,19.30
2022-08-20T01:55:23.042Z,19.20
2022-08-20T01:59:24.757Z,19.20
2022-08-20T02:03:26.426Z,19.30
2022-08-20T02:07:29.908Z,19.30
2022-08-20T02:11:33.815Z,19.30
2022-08-20T02:15:37.368Z,19.30
2022-08-20T02:19:43.653Z,19.40
2022-08-20T02:23:45.257Z,19.40
2022-08-20T02:27:48.412Z,19.30
2022-08-20T02:32:32.358Z,19.30
2022-08-20T02:36:12.770Z,19.20
2022-08-20T02:40:16.328Z,18.90
2022-08-20T02:44:20.461Z,18.90
2022-08-20T02:48:23.014Z,19.00
2022-08-20T02:52:24.699Z,19.00
2022-08-20T02:56:27.407Z,19.10
2022-08-20T03:00:37.903Z,19.20
2022-08-20T03:04:39.972Z,19.20
2022-08-20T03:08:41.927Z,19.30
2022-08-20T03:12:43.624Z,19.10
2022-08-20T03:16:45.274Z,18.90
2022-08-20T03:20:47.493Z,18.80
2022-08-20T03:24:54.045Z,18.90
2022-08-20T03:28:55.771Z,18.80
2022-08-20T03:32:57.899Z,18.80
2022-08-20T03:36:59.537Z,18.70
2022-08-20T03:41:02.069Z,18.70
2022-08-20T03:45:04.200Z,18.80
2022-08-20T03:49:06.076Z,18.80
2022-08-20T03:53:08.420Z,18.70
2022-08-20T03:57:16.149Z,18.60
2022-08-20T04:01:44.314Z,18.60
2022-08-20T04:05:40.777Z,18.70
2022-08-20T04:09:44.064Z,18.70
2022-08-20T04:13:45.704Z,18.60
2022-08-20T04:17:50.124Z,18.30
2022-08-20T04:21:52.005Z,18.30
2022-08-20T04:25:54.286Z,18.50
2022-08-20T04:29:59.126Z,18.40
2022-08-20T04:34:02.006Z,18.40
2022-08-20T04:38:06.394Z,18.50
2022-08-20T04:42:08.063Z,18.30
2022-08-20T04:46:10.077Z,18.20
2022-08-20T04:50:12.510Z,18.00
2022-08-20T04:54:14.536Z,17.90
2022-08-20T04:58:18.194Z,17.80
2022-08-20T05:02:20.807Z,17.80
2022-08-20T05:06:24.651Z,17.80
2022-08-20T05:10:26.729Z,17.80
2022-08-20T05:14:29.715Z,17.80
2022-08-20T05:18:35.171Z,17.90
2022-08-20T05:22:36.925Z,17.90
2022-08-20T05:26:38.631Z,17.90
2022-08-20T05:30:41.665Z,17.90
2022-08-20T05:34:44.193Z,18.10
2022-08-20T05:38:49.773Z,18.00
2022-08-20T05:42:52.034Z,17.80
2022-08-20T05:46:53.717Z,17.70
2022-08-20T05:50:56.583Z,17.90
2022-08-20T05:54:58.428Z,17.80
2022-08-20T05:59:06.639Z,17.70
2022-08-20T06:03:26.851Z,17.80
2022-08-20T06:07:28.634Z,18.00
2022-08-20T06:11:33.854Z,17.90
2022-08-20T06:15:39.774Z,17.70
2022-08-20T06:19:44.238Z,18.10
2022-08-20T06:23:56.468Z,17.90
2022-08-20T06:28:02.288Z,17.90
2022-08-20T06:32:04.162Z,18.10
2022-08-20T06:36:07.142Z,18.00
2022-08-20T06:40:11.014Z,18.10
2022-08-20T06:44:12.933Z,18.20
2022-08-20T06:48:15.260Z,18.50
2022-08-20T06:52:17.839Z,18.20
2022-08-20T06:56:19.589Z,18.70
2022-08-20T07:00:21.648Z,18.80
2022-08-20T07:04:24.408Z,19.10
2022-08-20T07:08:26.098Z,19.20
2022-08-20T07:12:27.835Z,19.20
2022-08-20T07:16:29.557Z,18.90
2022-08-20T07:20:32.932Z,19.00
2022-08-20T07:24:37.887Z,18.70
2022-08-20T07:28:42.576Z,18.40
2022-08-20T07:32:45.214Z,18.50
2022-08-20T07:36:48.850Z,18.60
2022-08-20T07:40:58.407Z,18.90
2022-08-20T07:45:00.060Z,19.00
2022-08-20T07:49:02.169Z,19.50
2022-08-20T07:53:03.889Z,19.10
2022-08-20T07:57:05.751Z,19.20
2022-08-20T08:01:07.709Z,19.10
2022-08-20T08:05:10.129Z,18.90
2022-08-20T08:09:13.628Z,19.10
2022-08-20T08:13:15.577Z,19.30
2022-08-20T08:17:17.932Z,19.30
2022-08-20T08:21:22.277Z,19.60
2022-08-20T08:25:23.973Z,19.50
2022-08-20T08:29:26.222Z,20.20
2022-08-20T08:33:30.744Z,19.70
2022-08-20T08:37:32.609Z,19.60
2022-08-20T08:41:50.099Z,19.30
2022-08-20T08:45:57.830Z,20.20
2022-08-20T08:50:01.683Z,20.10
2022-08-20T08:54:07.140Z,20.40
2022-08-20T08:58:16.864Z,20.20
2022-08-20T09:02:21.399Z,19.90
2022-08-20T09:06:24.730Z,19.90
2022-08-20T09:10:26.393Z,20.00
2022-08-20T09:14:28.126Z,19.90
2022-08-20T09:18:29.941Z,20.00
2022-08-20T09:22:33.445Z,20.20
2022-08-20T09:26:39.018Z,20.60
2022-08-20T09:30:40.997Z,20.40
2022-08-20T09:34:45.391Z,20.40
2022-08-20T09:38:47.132Z,20.80
2022-08-20T09:42:49.656Z,20.30
2022-08-20T09:46:51.298Z,20.10
2022-08-20T09:50:53.242Z,20.60
2022-08-20T09:54:59.295Z,20.60
2022-08-20T09:59:03.001Z,21.20
2022-08-20T10:03:04.983Z,21.30
2022-08-20T10:07:07.746Z,21.30
2022-08-20T10:11:10.963Z,21.80
2022-08-20T10:15:12.849Z,21.70
2022-08-20T10:19:14.458Z,21.60
2022-08-20T10:23:16.171Z,21.20
2022-08-20T10:27:17.777Z,21.00
2022-08-20T10:31:19.615Z,21.20
2022-08-20T10:35:24.201Z,21.40
2022-08-20T10:39:25.827Z,21.10
2022-08-20T10:43:28.234Z,21.00
2022-08-20T10:47:31.709Z,21.70
2022-08-20T10:51:33.470Z,21.50
2022-08-20T10:55:35.133Z,21.20
2022-08-20T10:59:41.172Z,21.60
2022-08-20T11:03:42.950Z,21.40
2022-08-20T11:07:50.823Z,22.10
2022-08-20T11:11:58.178Z,22.10
2022-08-20T11:16:01.120Z,22.40
2022-08-20T11:20:04.851Z,22.30
2022-08-20T11:24:06.587Z,21.40
2022-08-20T11:28:08.437Z,21.90
2022-08-20T11:32:10.287Z,21.60
2022-08-20T11:36:12.022Z,21.60
2022-08-20T11:40:13.859Z,22.00
2022-08-20T11:44:20.335Z,22.20
2022-08-20T11:48:23.400Z,22.10
2022-08-20T11:52:25.753Z,22.00
2022-08-20T11:56:30.055Z,21.50
2022-08-20T12:00:33.968Z,21.70
2022-08-20T12:04:35.998Z,21.70
2022-08-20T12:08:39.007Z,21.80
2022-08-20T12:12:40.678Z,21.80
2022-08-20T12:16:42.491Z,22.60
2022-08-20T12:20:44.198Z,22.00
2022-08-20T12:24:45.928Z,22.50
2022-08-20T12:28:47.676Z,22.70
2022-08-20T12:32:49.402Z,22.70
2022-08-20T12:36:50.994Z,22.40
2022-08-20T12:40:52.693Z,22.80
2022-08-20T12:44:54.878Z,22.80
2022-08-20T12:48:56.507Z,23.20
2022-08-20T12:52:58.644Z,23.40
2022-08-20T12:57:00.622Z,22.90
2022-08-20T13:01:02.297Z,22.50
2022-08-20T13:05:05.478Z,22.20
2022-08-20T13:09:07.255Z,22.40
2022-08-20T13:13:08.875Z,22.10
2022-08-20T13:17:10.952Z,22.30
2022-08-20T13:21:12.733Z,22.90
2022-08-20T13:25:14.533Z,23.10
2022-08-20T13:29:16.658Z,23.00
2022-08-20T13:33:18.364Z,23.00
2022-08-20T13:37:25.947Z,22.80
2022-08-20T13:41:27.780Z,22.80
2022-08-20T13:45:29.975Z,22.80
2022-08-20T13:49:33.965Z,22.80
2022-08-20T13:53:35.837Z,22.80
2022-08-20T13:57:38.122Z,23.40
2022-08-20T14:01:39.895Z,23.10
2022-08-20T14:05:41.607Z,23.10
2022-08-20T14:09:44.432Z,23.20
2022-08-20T14:13:46.228Z,23.20
2022-08-20T14:17:52.870Z,22.70
2022-08-20T14:21:54.679Z,23.10
2022-08-20T14:25:59.210Z,23.30
2022-08-20T14:30:01.135Z,23.30
2022-08-20T14:34:02.775Z,23.20
2022-08-20T14:38:05.584Z,23.40
2022-08-20T14:42:10.499Z,23.50
2022-08-20T14:46:12.259Z,23.30
2022-08-20T14:50:18.970Z,23.50
2022-08-20T14:54:20.618Z,23.40
2022-08-20T14:58:22.234Z,23.20
2022-08-20T15:02:25.244Z,23.20
2022-08-20T15:06:26.909Z,23.30
2022-08-20T15:10:36.472Z,23.50
2022-08-20T15:14:40.940Z,23.70
2022-08-20T15:18:43.496Z,23.50
2022-08-20T15:22:45.259Z,23.40
2022-08-20T15:26:47.126Z,23.60
2022-08-20T15:30:48.837Z,23.60
2022-08-20T15:34:53.745Z,23.20
2022-08-20T15:38:55.364Z,23.00
2022-08-20T15:42:58.139Z,23.30
2022-08-20T15:47:18.678Z,23.40
2022-08-20T15:51:32.843Z,23.40
2022-08-20T15:55:40.772Z,23.30
2022-08-20T15:59:51.789Z,23.70
2022-08-20T16:04:12.411Z,23.50
2022-08-20T16:08:14.141Z,23.60
2022-08-20T16:12:42.307Z,23.60
2022-08-20T16:17:01.133Z,23.50
2022-08-20T16:21:08.215Z,23.40
2022-08-20T16:25:10.939Z,23.40
2022-08-20T16:29:22.448Z,23.70
2022-08-20T16:33:53.697Z,23.40
2022-08-20T16:37:58.928Z,23.70
2022-08-20T16:42:05.937Z,23.70
2022-08-20T16:46:18.697Z,23.90
2022-08-20T16:50:22.808Z,23.50
2022-08-20T16:54:29.700Z,23.80
2022-08-20T16:58:32.909Z,23.90
2022-08-20T17:02:34.605Z,23.50
2022-08-20T17:06:39.894Z,23.50
2022-08-20T17:10:59.548Z,23.40
2022-08-20T17:15:01.535Z,23.30
2022-08-20T17:19:08.198Z,23.50
2022-08-20T17:23:12.136Z,23.60
2022-08-20T17:27:17.484Z,23.30
2022-08-20T17:31:38.436Z,23.70
2022-08-20T17:35:43.051Z,23.40
2022-08-20T17:39:49.327Z,23.40
2022-08-20T17:44:00.889Z,23.10
2022-08-20T17:48:03.728Z,22.90
2022-08-20T17:52:10.400Z,22.90
2022-08-20T17:56:15.331Z,22.70
2022-08-20T18:00:23.250Z,22.60
2022-08-20T18:04:24.928Z,22.50
2022-08-20T18:08:49.293Z,22.30
2022-08-20T18:12:57.925Z,22.30
2022-08-20T18:17:02.706Z,22.30
2022-08-20T18:21:04.297Z,22.30
2022-08-20T18:25:06.720Z,22.20
2022-08-20T18:29:20.025Z,22.20
2022-08-20T18:33:29.490Z,22.20
2022-08-20T18:37:35.091Z,21.90
2022-08-20T18:41:38.297Z,21.70
2022-08-20T18:45:40.034Z,21.90
2022-08-20T18:49:41.657Z,21.90
2022-08-20T18:53:46.954Z,21.60
2022-08-20T18:57:55.578Z,21.40
2022-08-20T19:01:57.236Z,21.50
2022-08-20T19:06:13.533Z,21.30
2022-08-20T19:10:28.234Z,21.40
2022-08-20T19:14:50.643Z,21.20
2022-08-20T19:18:53.679Z,20.90
2022-08-20T19:22:58.922Z,20.90
2022-08-20T19:27:05.673Z,20.70
2022-08-20T19:31:12.756Z,20.70
2022-08-20T19:35:17.520Z,20.60
2022-08-20T19:39:20.289Z,20.50
2022-08-20T19:43:25.569Z,20.10
2022-08-20T19:47:35.012Z,19.90
2022-08-20T19:51:55.545Z,19.70
2022-08-20T19:55:59.570Z,20.00
2022-08-20T20:00:11.057Z,19.90
2022-08-20T20:04:17.878Z,19.80
2022-08-20T20:08:20.489Z,20.00
2022-08-20T20:12:23.209Z,20.00
2022-08-20T20:16:25.089Z,19.70
2022-08-20T20:20:31.356Z,19.80
2022-08-20T20:24:43.658Z,19.50
2022-08-20T20:28:48.361Z,19.80
2022-08-20T20:32:50.687Z,19.80
2022-08-20T20:37:01.714Z,19.80
2022-08-20T20:41:05.098Z,19.60
2022-08-20T20:45:17.072Z,18.80
2022-08-20T20:49:23.473Z,18.80
2022-08-20T20:53:29.320Z,19.30
2022-08-20T20:57:49.588Z,18.90
2022-08-20T21:01:51.590Z,18.60
2022-08-20T21:05:54.202Z,18.90
2022-08-20T21:09:57.740Z,19.10
2022-08-20T21:13:59.604Z,19.10
2022-08-20T21:18:02.735Z,19.00
2022-08-20T21:22:04.411Z,18.60
2022-08-20T21:26:11.120Z,18.60
2022-08-20T21:30:13.370Z,18.90
2022-08-20T21:34:15.551Z,18.30
2022-08-20T21:38:17.349Z,18.50
2022-08-20T21:42:28.778Z,18.40
2022-08-20T21:46:31.375Z,18.30
2022-08-20T21:50:33.079Z,18.40
2022-08-20T21:54:34.695Z,18.60
2022-08-20T21:58:36.850Z,18.90
2022-08-20T22:02:38.629Z,18.20
2022-08-20T22:06:40.707Z,18.00
2022-08-20T22:10:42.422Z,18.10
2022-08-20T22:14:44.790Z,17.90
2022-08-20T22:18:47.080Z,17.80
2022-08-20T22:22:48.791Z,17.80
2022-08-20T22:26:50.424Z,17.80
2022-08-20T22:30:52.173Z,17.80
2022-08-20T22:34:53.999Z,17.80
2022-08-20T22:38:56.006Z,17.80
2022-08-20T22:42:57.768Z,17.60
2022-08-20T22:47:00.918Z,17.30
2022-08-20T22:51:02.560Z,17.50
2022-08-20T22:55:05.897Z,17.40
2022-08-20T22:59:07.794Z,17.30
2022-08-20T23:03:09.688Z,17.20
2022-08-20T23:07:12.614Z,17.00
2022-08-20T23:11:14.278Z,17.00
2022-08-20T23:15:15.991Z,17.30
2022-08-20T23:19:21.407Z,17.20
2022-08-20T23:23:24.496Z,16.90
2022-08-20T23:27:26.279Z,16.80
2022-08-20T23:31:27.862Z,17.20
2022-08-20T23:35:29.843Z,17.30
2022-08-20T23:39:34.389Z,17.10
2022-08-20T23:43:36.855Z,16.80
2022-08-20T23:47:41.332Z,16.90
2022-08-20T23:51:42.962Z,16.90
2022-08-20T23:55:44.580Z,16.70
2022-08-20T23:59:46.702Z,16.90
